createdAt,value
2023-03-22T00:01:12.029Z,8.48
2023-03-22T00:03:39.513Z,8.38
2023-03-22T00:06:06.748Z,8.45
2023-03-22T00:08:33.688Z,8.42
2023-03-22T00:11:00.673Z,8.40
2023-03-22T00:13:27.782Z,8.29
2023-03-22T00:15:56.074Z,8.21
2023-03-22T00:18:22.919Z,8.16
2023-03-22T00:20:51.881Z,8.25
2023-03-22T00:23:19.048Z,8.19
2023-03-22T00:25:46.256Z,8.16
2023-03-22T00:28:14.373Z,8.11
2023-03-22T00:30:41.255Z,8.20
2023-03-22T00:33:08.715Z,8.15
2023-03-22T00:35:35.986Z,8.18
2023-03-22T00:38:14.087Z,8.17
2023-03-22T00:40:42.177Z,8.08
2023-03-22T00:43:09.105Z,8.07
2023-03-22T00:45:40.988Z,8.11
2023-03-22T00:48:12.290Z,8.01
2023-03-22T00:50:41.184Z,8.08
2023-03-22T00:53:08.270Z,8.06
2023-03-22T00:55:35.446Z,8.13
2023-03-22T00:58:02.879Z,8.07
2023-03-22T01:00:31.425Z,8.25
2023-03-22T01:02:59.883Z,8.26
2023-03-22T01:05:28.346Z,8.12
2023-03-22T01:07:55.664Z,8.20
2023-03-22T01:10:22.915Z,8.20
2023-03-22T01:12:49.847Z,8.21
2023-03-22T01:15:16.751Z,8.25
2023-03-22T01:17:43.724Z,8.30
2023-03-22T01:20:11.270Z,8.17
2023-03-22T01:22:38.972Z,8.34
2023-03-22T01:25:06.376Z,8.37
2023-03-22T01:27:33.250Z,8.32
2023-03-22T01:29:59.997Z,8.34
2023-03-22T01:32:27.076Z,8.24
2023-03-22T01:34:53.919Z,8.23
2023-03-22T01:37:22.065Z,8.29
2023-03-22T01:39:49.621Z,8.26
2023-03-22T01:42:18.222Z,8.21
2023-03-22T01:45:14.274Z,8.14
2023-03-22T01:47:52.249Z,8.11
2023-03-22T01:50:20.336Z,8.07
2023-03-22T01:52:49.791Z,7.90
2023-03-22T01:55:29.666Z,7.97
2023-03-22T01:58:08.041Z,7.94
2023-03-22T02:00:49.258Z,7.89
2023-03-22T02:04:08.960Z,7.79
2023-03-22T02:06:38.357Z,7.69
2023-03-22T02:09:12.749Z,7.78
2023-03-22T02:11:43.897Z,7.82
2023-03-22T02:14:37.630Z,7.85
2023-03-22T02:17:34.709Z,7.90
2023-03-22T02:20:25.255Z,7.89
2023-03-22T02:23:07.540Z,7.86
2023-03-22T02:25:59.000Z,7.92
2023-03-22T02:28:30.575Z,7.92
2023-03-22T02:31:24.202Z,7.96
2023-03-22T02:34:29.100Z,7.94
2023-03-22T02:37:02.199Z,7.97
2023-03-22T02:40:03.938Z,7.97
2023-03-22T02:43:08.453Z,7.96
2023-03-22T02:45:52.492Z,7.90
2023-03-22T02:48:31.010Z,7.85
2023-03-22T02:51:08.356Z,7.84
2023-03-22T02:53:53.134Z,7.86
2023-03-22T02:56:34.476Z,7.93
2023-03-22T02:59:04.522Z,7.96
2023-03-22T03:01:39.666Z,7.98
2023-03-22T03:04:12.753Z,8.04
2023-03-22T03:06:46.204Z,8.03
2023-03-22T03:09:19.342Z,7.99
2023-03-22T03:11:48.469Z,8.03
2023-03-22T03:14:29.662Z,8.04
2023-03-22T03:17:09.600Z,8.09
2023-03-22T03:19:43.563Z,8.03
2023-03-22T03:22:22.562Z,7.98
2023-03-22T03:25:38.473Z,7.91
2023-03-22T03:28:38.233Z,7.85
2023-03-22T03:31:27.154Z,7.83
2023-03-22T03:34:42.225Z,7.78
2023-03-22T03:37:18.645Z,7.74
2023-03-22T03:39:58.254Z,7.72
2023-03-22T03:42:28.987Z,7.68
2023-03-22T03:44:56.612Z,7.67
2023-03-22T03:47:24.237Z,7.64
2023-03-22T03:49:51.318Z,7.46
2023-03-22T03:52:19.070Z,7.45
2023-03-22T03:54:45.951Z,7.49
2023-03-22T03:57:17.749Z,7.46
2023-03-22T03:59:44.442Z,7.41
2023-03-22T04:02:20.718Z,7.56
2023-03-22T04:04:48.864Z,7.61
2023-03-22T04:07:15.760Z,7.63
2023-03-22T04:09:42.582Z,7.62
2023-03-22T04:12:20.625Z,7.51
2023-03-22T04:15:07.985Z,7.64
2023-03-22T04:17:34.962Z,7.60
2023-03-22T04:20:05.368Z,7.67
2023-03-22T04:22:38.424Z,7.47
2023-03-22T04:25:11.771Z,7.55
2023-03-22T04:27:42.993Z,7.63
2023-03-22T04:30:18.970Z,7.55
2023-03-22T04:33:01.440Z,7.49
2023-03-22T04:35:48.938Z,7.58
2023-03-22T04:38:17.997Z,7.59
2023-03-22T04:40:46.862Z,7.59
2023-03-22T04:43:28.257Z,7.50
2023-03-22T04:46:01.821Z,7.46
2023-03-22T04:48:41.245Z,7.31
2023-03-22T04:51:11.646Z,7.36
2023-03-22T04:53:45.398Z,7.33
2023-03-22T04:56:14.549Z,7.34
2023-03-22T04:58:43.183Z,7.31
2023-03-22T05:01:11.493Z,7.24
2023-03-22T05:03:42.971Z,7.31
2023-03-22T05:06:10.462Z,7.40
2023-03-22T05:08:48.708Z,7.51
2023-03-22T05:11:19.559Z,7.53
2023-03-22T05:13:57.977Z,7.51
2023-03-22T05:16:26.611Z,7.60
2023-03-22T05:18:56.638Z,7.64
2023-03-22T05:21:28.285Z,7.72
2023-03-22T05:23:59.206Z,7.75
2023-03-22T05:26:26.939Z,7.84
2023-03-22T05:28:56.124Z,7.82
2023-03-22T05:31:41.755Z,7.83
2023-03-22T05:34:09.764Z,7.84
2023-03-22T05:36:38.310Z,7.81
2023-03-22T05:39:28.271Z,7.87
2023-03-22T05:41:56.188Z,7.92
2023-03-22T05:44:23.167Z,7.91
2023-03-22T05:47:07.045Z,8.00
2023-03-22T05:49:36.672Z,8.07
2023-03-22T05:52:06.077Z,8.02
2023-03-22T05:54:51.715Z,8.19
2023-03-22T05:57:18.581Z,8.15
2023-03-22T05:59:45.658Z,8.30
2023-03-22T06:02:18.790Z,8.34
2023-03-22T06:04:46.710Z,8.37
2023-03-22T06:07:15.834Z,8.35
2023-03-22T06:09:47.436Z,8.41
2023-03-22T06:12:19.927Z,8.47
2023-03-22T06:14:51.317Z,8.44
2023-03-22T06:17:43.511Z,8.46
2023-03-22T06:20:14.401Z,8.57
2023-03-22T06:22:47.592Z,8.60
2023-03-22T06:25:15.738Z,8.67
2023-03-22T06:27:45.984Z,8.70
2023-03-22T06:30:13.278Z,8.72
2023-03-22T06:33:18.091Z,8.77
2023-03-22T06:35:49.295Z,8.82
2023-03-22T06:38:24.502Z,8.83
2023-03-22T06:40:52.603Z,8.85
2023-03-22T06:43:19.576Z,8.82
2023-03-22T06:45:49.178Z,8.94
2023-03-22T06:48:21.254Z,8.99
2023-03-22T06:50:56.971Z,9.03
2023-03-22T06:53:32.128Z,9.13
2023-03-22T06:55:59.522Z,9.18
2023-03-22T06:58:27.302Z,9.21
2023-03-22T07:00:56.165Z,9.23
2023-03-22T07:03:24.565Z,9.14
2023-03-22T07:06:04.617Z,9.22
2023-03-22T07:08:34.787Z,9.20
2023-03-22T07:11:03.829Z,9.33
2023-03-22T07:13:30.930Z,9.34
2023-03-22T07:16:02.740Z,9.25
2023-03-22T07:18:39.619Z,9.46
2023-03-22T07:21:06.797Z,9.52
2023-03-22T07:23:35.705Z,9.57
2023-03-22T07:26:07.912Z,9.57
2023-03-22T07:28:39.267Z,9.72
2023-03-22T07:31:11.661Z,9.76
2023-03-22T07:34:00.521Z,9.79
2023-03-22T07:36:30.756Z,9.79
2023-03-22T07:38:57.973Z,9.88
2023-03-22T07:41:30.668Z,9.94
2023-03-22T07:44:18.405Z,10.01
2023-03-22T07:47:05.917Z,10.04
2023-03-22T07:49:39.410Z,10.07
2023-03-22T07:52:09.216Z,10.12
2023-03-22T07:54:36.116Z,10.12
2023-03-22T07:57:06.808Z,10.15
2023-03-22T07:59:39.883Z,10.28
2023-03-22T08:02:11.153Z,10.34
2023-03-22T08:04:44.218Z,10.42
2023-03-22T08:07:24.924Z,10.49
2023-03-22T08:09:52.164Z,10.51
2023-03-22T08:12:19.745Z,10.58
2023-03-22T08:14:53.249Z,10.67
2023-03-22T08:17:26.053Z,10.70
2023-03-22T08:19:56.328Z,10.76
2023-03-22T08:22:34.128Z,10.80
2023-03-22T08:25:33.544Z,10.78
2023-03-22T08:28:07.459Z,10.91
2023-03-22T08:30:34.604Z,10.96
2023-03-22T08:33:01.412Z,11.06
2023-03-22T08:35:28.273Z,11.06
2023-03-22T08:37:56.531Z,11.16
2023-03-22T08:40:29.172Z,11.07
2023-03-22T08:43:00.265Z,11.14
2023-03-22T08:45:29.113Z,11.10
2023-03-22T08:48:05.849Z,11.21
2023-03-22T08:50:44.673Z,11.29
2023-03-22T08:53:20.582Z,11.39
2023-03-22T08:55:54.212Z,11.42
2023-03-22T08:58:31.144Z,11.42
2023-03-22T09:01:22.312Z,11.59
2023-03-22T09:03:57.480Z,11.54
2023-03-22T09:06:26.116Z,11.75
2023-03-22T09:08:53.841Z,11.82
2023-03-22T09:11:23.316Z,11.77
2023-03-22T09:13:50.504Z,11.75
2023-03-22T09:16:18.353Z,11.95
2023-03-22T09:18:46.238Z,11.93
2023-03-22T09:21:16.758Z,12.06
2023-03-22T09:23:57.700Z,12.21
2023-03-22T09:26:37.417Z,12.28
2023-03-22T09:29:05.970Z,12.09
2023-03-22T09:31:33.714Z,12.01
2023-03-22T09:34:16.090Z,12.06
2023-03-22T09:36:43.205Z,12.08
2023-03-22T09:39:10.740Z,12.04
2023-03-22T09:41:49.041Z,12.10
2023-03-22T09:44:22.769Z,12.14
2023-03-22T09:46:54.472Z,12.23
2023-03-22T09:49:26.272Z,12.28
2023-03-22T09:51:54.648Z,12.34
2023-03-22T09:54:21.750Z,12.28
2023-03-22T09:57:00.338Z,12.22
2023-03-22T09:59:36.183Z,12.26
2023-03-22T10:02:29.533Z,12.31
2023-03-22T10:05:42.268Z,12.38
2023-03-22T10:08:15.421Z,12.46
2023-03-22T10:10:43.231Z,12.56
2023-03-22T10:13:19.951Z,12.53
2023-03-22T10:15:59.212Z,12.58
2023-03-22T10:18:47.338Z,12.47
2023-03-22T10:21:16.871Z,12.42
2023-03-22T10:23:55.651Z,12.57
2023-03-22T10:26:45.744Z,12.69
2023-03-22T10:29:28.554Z,12.77
2023-03-22T10:31:55.647Z,13.01
2023-03-22T10:34:31.287Z,13.07
2023-03-22T10:37:02.335Z,13.19
2023-03-22T10:39:34.300Z,13.36
2023-03-22T10:42:10.764Z,13.42
2023-03-22T10:45:10.307Z,13.48
2023-03-22T10:48:39.065Z,13.63
2023-03-22T11:17:46.108Z,14.49
2023-03-22T11:20:19.337Z,14.53
2023-03-22T11:22:48.283Z,14.59
2023-03-22T11:25:20.999Z,14.74
2023-03-22T11:28:06.455Z,14.84
2023-03-22T11:30:34.215Z,14.85
2023-03-22T11:33:18.946Z,14.82
2023-03-22T11:35:48.597Z,14.61
2023-03-22T11:38:38.309Z,14.68
2023-03-22T11:41:07.652Z,14.93
2023-03-22T11:43:40.836Z,14.90
2023-03-22T11:46:08.930Z,14.84
2023-03-22T11:48:37.590Z,14.52
2023-03-22T11:51:25.901Z,15.09
2023-03-22T11:53:57.113Z,16.05
2023-03-22T11:56:29.756Z,17.38
2023-03-22T11:59:04.077Z,19.47
2023-03-22T12:01:51.408Z,20.77
2023-03-22T12:04:27.045Z,21.42
2023-03-22T12:07:00.600Z,20.05
2023-03-22T12:10:02.128Z,18.81
2023-03-22T12:12:47.449Z,17.35
2023-03-22T12:15:24.010Z,16.40
2023-03-22T12:18:03.554Z,15.93
2023-03-22T12:20:42.073Z,15.54
2023-03-22T12:23:15.726Z,15.29
2023-03-22T12:25:49.467Z,15.00
2023-03-22T12:28:21.076Z,14.69
2023-03-22T12:30:54.518Z,14.56
2023-03-22T12:33:27.860Z,14.39
2023-03-22T12:36:04.614Z,14.27
2023-03-22T12:38:35.612Z,14.13
2023-03-22T12:41:07.360Z,14.04
2023-03-22T12:43:56.772Z,13.96
2023-03-22T12:46:31.732Z,13.98
2023-03-22T12:49:05.777Z,14.00
2023-03-22T12:51:32.971Z,14.00
2023-03-22T12:54:01.682Z,13.94
2023-03-22T12:56:45.179Z,14.11
2023-03-22T12:59:26.693Z,14.26
2023-03-22T13:01:59.491Z,14.38
2023-03-22T13:04:34.806Z,14.49
2023-03-22T13:07:13.719Z,14.51
2023-03-22T13:09:49.062Z,14.38
2023-03-22T13:12:18.529Z,14.49
2023-03-22T13:14:57.736Z,14.51
2023-03-22T13:17:24.973Z,14.55
2023-03-22T13:20:07.897Z,14.53
2023-03-22T13:22:38.164Z,14.62
2023-03-22T13:25:12.899Z,14.54
2023-03-22T13:27:45.521Z,14.71
2023-03-22T13:30:24.362Z,14.66
2023-03-22T13:33:20.799Z,14.62
2023-03-22T13:35:52.762Z,14.70
2023-03-22T13:38:35.490Z,14.49
2023-03-22T13:41:26.585Z,14.60
2023-03-22T13:43:57.198Z,14.38
2023-03-22T13:46:45.619Z,14.30
2023-03-22T13:49:22.427Z,14.21
2023-03-22T13:51:50.398Z,14.15
2023-03-22T13:54:32.818Z,14.14
2023-03-22T13:57:01.519Z,14.17
2023-03-22T14:00:08.887Z,14.15
2023-03-22T14:02:42.900Z,14.16
2023-03-22T14:05:16.573Z,14.14
2023-03-22T14:07:58.164Z,14.15
2023-03-22T14:10:31.064Z,14.07
2023-03-22T14:13:19.317Z,14.03
2023-03-22T14:15:50.729Z,14.05
2023-03-22T14:18:31.541Z,14.04
2023-03-22T14:21:01.606Z,14.17
